Time;durP1;ratioP1;P1;durP2;ratioP2;P2;SDS_P1;SDS_P2;PMS_P1;PMS_P2;Temp;Humidity;BMP_temperature;BMP_pressure;BME280_temperature;BME280_humidity;BME280_pressure;Samples;Min_cycle;Max_cycle;Signal;HPM_P1;HPM_P2
2023/07/23 00:01:53;;;;;;;8.55;5.25;;;;;;;;;;5010818;28;20052;-71
2023/07/23 00:04:20;;;;;;;10.60;6.03;;;;;;;;;;5011552;28;20121;-71
2023/07/23 00:06:47;;;;;;;9.15;5.63;;;;;;;;;;5005335;28;20042;-70
2023/07/23 00:09:13;;;;;;;8.52;5.45;;;;;;;;;;5009277;28;20041;-71
2023/07/23 00:11:39;;;;;;;10.88;6.80;;;;;;;;;;5003879;28;20084;-71
2023/07/23 00:14:05;;;;;;;7.28;4.72;;;;;;;;;;5009340;28;20062;-70
2023/07/23 00:16:31;;;;;;;7.32;4.35;;;;;;;;;;5006536;28;20041;-71
2023/07/23 00:18:57;;;;;;;9.98;4.60;;;;;;;;;;5010553;28;20504;-71
2023/07/23 00:21:23;;;;;;;11.80;5.30;;;;;;;;;;5009216;28;20497;-70
2023/07/23 00:23:49;;;;;;;9.07;5.85;;;;;;;;;;5011382;28;20083;-71
2023/07/23 00:26:15;;;;;;;10.40;5.00;;;;;;;;;;5010898;28;20041;-71
2023/07/23 00:28:41;;;;;;;7.90;5.45;;;;;;;;;;5009615;28;20049;-71
2023/07/23 00:31:07;;;;;;;9.50;5.20;;;;;;;;;;5008584;28;20053;-70
2023/07/23 00:33:34;;;;;;;10.35;5.57;;;;;;;;;;5011493;28;20054;-70
2023/07/23 00:36:00;;;;;;;9.77;5.00;;;;;;;;;;5010463;28;20033;-71
2023/07/23 00:38:26;;;;;;;13.75;6.28;;;;;;;;;;5008714;28;20056;-71
2023/07/23 00:40:52;;;;;;;7.55;4.43;;;;;;;;;;5010708;28;20080;-70
2023/07/23 00:43:18;;;;;;;8.85;4.97;;;;;;;;;;5010169;28;20038;-70
2023/07/23 00:45:44;;;;;;;9.55;5.63;;;;;;;;;;5009250;28;20049;-70
2023/07/23 00:48:10;;;;;;;12.93;6.88;;;;;;;;;;5009725;28;20116;-70
2023/07/23 00:50:36;;;;;;;12.15;6.72;;;;;;;;;;5006998;28;20054;-71
2023/07/23 00:53:02;;;;;;;11.73;6.65;;;;;;;;;;5009658;28;20049;-71
2023/07/23 00:55:28;;;;;;;10.07;5.93;;;;;;;;;;5008182;28;20064;-71
2023/07/23 00:57:55;;;;;;;10.35;6.10;;;;;;;;;;5008597;28;20136;-71
2023/07/23 01:00:21;;;;;;;7.90;5.47;;;;;;;;;;5014278;28;20053;-71
2023/07/23 01:02:48;;;;;;;8.85;5.65;;;;;;;;;;5014499;28;20392;-71
2023/07/23 01:05:14;;;;;;;11.90;7.30;;;;;;;;;;5013102;28;20045;-70
2023/07/23 01:07:40;;;;;;;11.10;6.53;;;;;;;;;;5010297;28;20074;-70
2023/07/23 01:10:09;;;;;;;13.23;7.47;;;;;;;;;;5011778;28;20053;-71
2023/07/23 01:12:37;;;;;;;12.75;7.15;;;;;;;;;;5014007;28;20516;-71
2023/07/23 01:15:05;;;;;;;13.80;7.85;;;;;;;;;;5014563;28;20513;-71
2023/07/23 01:17:32;;;;;;;13.10;7.90;;;;;;;;;;5003769;28;20046;-71
2023/07/23 01:20:04;;;;;;;12.13;8.02;;;;;;;;;;5006127;28;20042;-71
2023/07/23 01:22:30;;;;;;;15.65;8.20;;;;;;;;;;5012021;28;20081;-71
2023/07/23 01:24:56;;;;;;;16.92;10.10;;;;;;;;;;5014587;28;20117;-71
2023/07/23 01:27:22;;;;;;;13.15;8.55;;;;;;;;;;5013012;28;20450;-71
2023/07/23 01:29:48;;;;;;;17.02;9.43;;;;;;;;;;5015034;28;20068;-71
2023/07/23 01:32:14;;;;;;;18.88;10.65;;;;;;;;;;5013904;28;20397;-71
2023/07/23 01:34:40;;;;;;;18.05;9.48;;;;;;;;;;5014778;28;20050;-71
2023/07/23 01:37:07;;;;;;;16.65;9.98;;;;;;;;;;5013011;28;20187;-71
2023/07/23 01:39:33;;;;;;;15.00;9.80;;;;;;;;;;5014122;28;20042;-71
2023/07/23 01:41:59;;;;;;;17.05;9.30;;;;;;;;;;5013062;28;20052;-71
2023/07/23 01:44:25;;;;;;;13.15;8.82;;;;;;;;;;5013834;28;20038;-71
2023/07/23 01:46:51;;;;;;;13.88;8.93;;;;;;;;;;5009217;28;20046;-71
2023/07/23 01:49:17;;;;;;;14.18;9.18;;;;;;;;;;5014244;28;20049;-71
2023/07/23 01:51:43;;;;;;;13.10;8.73;;;;;;;;;;5012864;28;20046;-71
2023/07/23 01:54:09;;;;;;;17.25;9.05;;;;;;;;;;5014431;28;20042;-71
2023/07/23 01:56:35;;;;;;;14.15;9.00;;;;;;;;;;5012716;28;20508;-71
2023/07/23 01:59:01;;;;;;;16.00;9.52;;;;;;;;;;5009710;28;20041;-71
2023/07/23 02:01:29;;;;;;;16.63;8.90;;;;;;;;;;5009688;28;20050;-71
2023/07/23 02:03:55;;;;;;;19.30;10.35;;;;;;;;;;5014023;28;20037;-71
2023/07/23 02:06:21;;;;;;;17.88;10.02;;;;;;;;;;5012064;28;20513;-71
2023/07/23 02:08:47;;;;;;;14.13;8.85;;;;;;;;;;5011513;28;20037;-71
2023/07/23 02:11:13;;;;;;;15.10;9.43;;;;;;;;;;5009020;28;20056;-71
2023/07/23 02:13:39;;;;;;;19.23;9.35;;;;;;;;;;5011950;28;20125;-71
2023/07/23 02:16:05;;;;;;;14.63;9.98;;;;;;;;;;5014154;28;20042;-71
2023/07/23 02:18:31;;;;;;;17.83;9.75;;;;;;;;;;5009873;28;20054;-71
2023/07/23 02:20:57;;;;;;;16.80;9.98;;;;;;;;;;5012123;28;20261;-71
2023/07/23 02:23:24;;;;;;;16.52;9.80;;;;;;;;;;5012135;28;20117;-71
2023/07/23 02:25:50;;;;;;;18.05;10.15;;;;;;;;;;5012552;28;20528;-71
2023/07/23 02:28:16;;;;;;;16.73;9.82;;;;;;;;;;5011598;28;20053;-71
2023/07/23 02:30:42;;;;;;;17.35;9.73;;;;;;;;;;5011536;28;20504;-71
2023/07/23 02:33:08;;;;;;;15.50;10.48;;;;;;;;;;5010424;28;20042;-71
2023/07/23 02:35:38;;;;;;;15.75;10.20;;;;;;;;;;5011020;28;20046;-71
2023/07/23 02:38:04;;;;;;;18.05;10.88;;;;;;;;;;5013621;28;20046;-71
2023/07/23 02:40:33;;;;;;;16.15;9.85;;;;;;;;;;5013390;28;20081;-71
2023/07/23 02:43:00;;;;;;;16.48;10.32;;;;;;;;;;5013415;28;20486;-71
2023/07/23 02:45:27;;;;;;;16.40;10.50;;;;;;;;;;5014004;28;20046;-71
2023/07/23 02:47:53;;;;;;;19.20;11.55;;;;;;;;;;5011137;28;20045;-71
2023/07/23 02:50:19;;;;;;;18.45;11.68;;;;;;;;;;5011910;28;20500;-71
2023/07/23 02:52:45;;;;;;;21.42;11.68;;;;;;;;;;5026266;28;20101;-71
2023/07/23 02:55:11;;;;;;;18.42;11.98;;;;;;;;;;5011319;28;20077;-71
2023/07/23 02:57:37;;;;;;;20.48;11.43;;;;;;;;;;5007150;28;20080;-71
2023/07/23 03:00:04;;;;;;;16.73;10.80;;;;;;;;;;5013997;28;20104;-71
2023/07/23 03:02:30;;;;;;;19.75;11.75;;;;;;;;;;5009923;28;20486;-71
2023/07/23 03:04:56;;;;;;;21.27;11.07;;;;;;;;;;5009972;28;20038;-71
2023/07/23 03:07:22;;;;;;;20.48;11.27;;;;;;;;;;5008131;28;20046;-71
2023/07/23 03:09:48;;;;;;;16.73;10.55;;;;;;;;;;5009698;28;20045;-71
2023/07/23 03:12:14;;;;;;;20.65;11.25;;;;;;;;;;5009439;28;20039;-71
2023/07/23 03:14:40;;;;;;;21.73;11.60;;;;;;;;;;4997368;28;20482;-71
2023/07/23 03:17:06;;;;;;;16.23;10.75;;;;;;;;;;5011673;28;20089;-71
2023/07/23 03:19:33;;;;;;;21.23;11.20;;;;;;;;;;5010230;28;20046;-71
2023/07/23 03:21:59;;;;;;;19.33;11.63;;;;;;;;;;5010953;28;20386;-71
2023/07/23 03:24:25;;;;;;;19.13;10.82;;;;;;;;;;5011023;28;20053;-71
2023/07/23 03:26:51;;;;;;;20.77;11.02;;;;;;;;;;5011860;28;20049;-71
2023/07/23 03:29:17;;;;;;;18.55;11.68;;;;;;;;;;5008348;28;20056;-71
2023/07/23 03:31:43;;;;;;;17.02;10.75;;;;;;;;;;5011800;28;20046;-71
2023/07/23 03:34:09;;;;;;;20.08;11.05;;;;;;;;;;4995449;28;20516;-71
2023/07/23 03:36:35;;;;;;;20.52;11.63;;;;;;;;;;5011920;28;20547;-71
2023/07/23 03:39:01;;;;;;;16.65;10.75;;;;;;;;;;5006158;28;20394;-71
2023/07/23 03:41:40;;;;;;;18.50;10.48;;;;;;;;;;5012323;28;20046;-71
2023/07/23 03:44:09;;;;;;;17.13;10.27;;;;;;;;;;5012957;28;20410;-71
2023/07/23 03:46:41;;;;;;;15.27;10.55;;;;;;;;;;4994811;28;20063;-71
2023/07/23 03:49:07;;;;;;;20.35;11.68;;;;;;;;;;5012122;28;20482;-71
2023/07/23 03:51:33;;;;;;;15.52;10.07;;;;;;;;;;5011873;28;20042;-71
2023/07/23 03:53:59;;;;;;;17.17;11.35;;;;;;;;;;5012101;28;20475;-71
2023/07/23 03:56:25;;;;;;;19.83;10.55;;;;;;;;;;5011599;28;20189;-72
2023/07/23 03:58:51;;;;;;;17.63;10.73;;;;;;;;;;4993506;28;20515;-71
2023/07/23 04:01:18;;;;;;;17.33;11.13;;;;;;;;;;5012200;28;20053;-71
2023/07/23 04:03:44;;;;;;;17.85;10.88;;;;;;;;;;5002234;28;20474;-71
2023/07/23 04:06:10;;;;;;;15.30;9.30;;;;;;;;;;4999067;28;20449;-71
2023/07/23 04:08:36;;;;;;;17.73;11.38;;;;;;;;;;5011619;28;20045;-71
2023/07/23 04:11:02;;;;;;;17.83;9.48;;;;;;;;;;4994115;28;20100;-71
2023/07/23 04:13:28;;;;;;;16.65;10.07;;;;;;;;;;4993718;28;20537;-71
2023/07/23 04:15:54;;;;;;;18.67;10.85;;;;;;;;;;4992932;28;20080;-71
2023/07/23 04:18:20;;;;;;;17.52;11.02;;;;;;;;;;4993741;28;20073;-71
2023/07/23 04:20:46;;;;;;;19.08;10.98;;;;;;;;;;5009083;28;20490;-71
2023/07/23 04:23:12;;;;;;;14.75;9.15;;;;;;;;;;5011666;28;20455;-71
2023/07/23 04:25:38;;;;;;;14.60;10.30;;;;;;;;;;5008910;28;20401;-71
2023/07/23 04:28:04;;;;;;;17.20;10.50;;;;;;;;;;4998574;28;20517;-71
2023/07/23 04:30:33;;;;;;;13.75;8.90;;;;;;;;;;4971940;28;20050;-71
2023/07/23 04:32:59;;;;;;;15.43;9.55;;;;;;;;;;4993047;28;20042;-71
2023/07/23 04:35:25;;;;;;;13.15;8.70;;;;;;;;;;4973146;28;20049;-71
2023/07/23 04:37:51;;;;;;;15.57;8.85;;;;;;;;;;4974571;28;20471;-71
2023/07/23 04:40:17;;;;;;;14.35;9.20;;;;;;;;;;4974169;28;20483;-71
2023/07/23 04:42:43;;;;;;;13.02;9.52;;;;;;;;;;4982258;28;20047;-71
2023/07/23 04:45:09;;;;;;;13.10;9.27;;;;;;;;;;4972348;28;20055;-71
2023/07/23 04:47:38;;;;;;;14.38;9.48;;;;;;;;;;4990775;28;20054;-71
2023/07/23 04:50:04;;;;;;;13.90;9.15;;;;;;;;;;4974284;28;20054;-71
2023/07/23 04:52:30;;;;;;;18.50;9.48;;;;;;;;;;4974840;28;20050;-71
2023/07/23 04:54:56;;;;;;;14.40;8.68;;;;;;;;;;4990473;28;20049;-71
2023/07/23 04:57:22;;;;;;;11.90;9.05;;;;;;;;;;4989406;28;20050;-71
2023/07/23 04:59:48;;;;;;;15.35;8.95;;;;;;;;;;4973931;28;20047;-71
2023/07/23 05:02:14;;;;;;;15.30;9.38;;;;;;;;;;4990520;28;20100;-72
2023/07/23 05:04:40;;;;;;;13.45;8.82;;;;;;;;;;4976283;28;20049;-71
2023/07/23 05:07:06;;;;;;;14.35;8.98;;;;;;;;;;5003167;28;20046;-71
2023/07/23 05:09:32;;;;;;;14.70;9.60;;;;;;;;;;4990154;28;20046;-71
2023/07/23 05:11:58;;;;;;;16.85;9.35;;;;;;;;;;4997471;28;20123;-71
2023/07/23 05:14:24;;;;;;;15.55;9.30;;;;;;;;;;4990458;28;20050;-71
2023/07/23 05:16:50;;;;;;;15.38;9.15;;;;;;;;;;4988143;28;20046;-71
2023/07/23 05:19:16;;;;;;;15.80;9.63;;;;;;;;;;4989536;28;20042;-71
2023/07/23 05:21:42;;;;;;;13.80;8.82;;;;;;;;;;4973320;28;20137;-71
2023/07/23 05:24:08;;;;;;;12.57;8.50;;;;;;;;;;4987954;28;20038;-71
2023/07/23 05:26:35;;;;;;;13.05;9.13;;;;;;;;;;4990036;28;20049;-72
2023/07/23 05:29:01;;;;;;;14.05;9.10;;;;;;;;;;5008533;28;20092;-72
2023/07/23 05:31:26;;;;;;;13.38;8.90;;;;;;;;;;5008859;28;20081;-71
2023/07/23 05:33:53;;;;;;;13.10;8.85;;;;;;;;;;5010174;28;20544;-71
2023/07/23 05:36:19;;;;;;;15.40;10.35;;;;;;;;;;5008477;28;20068;-71
2023/07/23 05:38:45;;;;;;;15.18;9.95;;;;;;;;;;5001793;28;20446;-71
2023/07/23 05:41:11;;;;;;;14.98;10.07;;;;;;;;;;4997091;28;20496;-71
2023/07/23 05:43:37;;;;;;;18.65;10.88;;;;;;;;;;5009793;28;20511;-71
2023/07/23 05:46:03;;;;;;;14.20;10.40;;;;;;;;;;5004631;28;20076;-71
2023/07/23 05:48:32;;;;;;;15.23;10.13;;;;;;;;;;5008106;28;20054;-71
2023/07/23 05:50:58;;;;;;;17.58;10.40;;;;;;;;;;5006832;28;20053;-71
2023/07/23 05:53:24;;;;;;;13.63;10.35;;;;;;;;;;5013077;28;20604;-71
2023/07/23 05:55:51;;;;;;;13.43;9.15;;;;;;;;;;5003425;28;20161;-71
2023/07/23 05:58:17;;;;;;;17.58;10.48;;;;;;;;;;5008630;28;20069;-71
2023/07/23 06:00:43;;;;;;;15.32;10.57;;;;;;;;;;5012971;28;20057;-71
2023/07/23 06:03:09;;;;;;;20.50;11.27;;;;;;;;;;5012998;28;20054;-71
2023/07/23 06:05:35;;;;;;;15.00;10.38;;;;;;;;;;5011025;28;20128;-71
2023/07/23 06:08:02;;;;;;;15.63;11.20;;;;;;;;;;5012971;28;20077;-71
2023/07/23 06:10:28;;;;;;;15.52;10.60;;;;;;;;;;5012949;28;20057;-71
2023/07/23 06:12:54;;;;;;;16.95;11.00;;;;;;;;;;5010776;28;20576;-71
2023/07/23 06:15:20;;;;;;;17.02;11.73;;;;;;;;;;5011414;28;20405;-71
2023/07/23 06:17:46;;;;;;;15.73;11.02;;;;;;;;;;5011325;28;20108;-71
2023/07/23 06:20:12;;;;;;;16.63;12.15;;;;;;;;;;5012706;28;20531;-71
2023/07/23 06:22:38;;;;;;;17.20;11.82;;;;;;;;;;5012778;28;20112;-71
2023/07/23 06:25:05;;;;;;;18.65;10.60;;;;;;;;;;5010329;28;20374;-71
2023/07/23 06:27:31;;;;;;;15.85;11.07;;;;;;;;;;5011963;28;20053;-71
2023/07/23 06:29:57;;;;;;;14.80;11.32;;;;;;;;;;5011601;28;20053;-71
2023/07/23 06:32:23;;;;;;;16.48;11.52;;;;;;;;;;5012485;28;20060;-71
2023/07/23 06:34:49;;;;;;;18.13;11.65;;;;;;;;;;5010782;28;20100;-71
2023/07/23 06:37:15;;;;;;;17.98;12.30;;;;;;;;;;5009234;28;20044;-71
2023/07/23 06:39:41;;;;;;;15.88;11.48;;;;;;;;;;5012603;28;20042;-71
2023/07/23 06:42:07;;;;;;;15.90;11.90;;;;;;;;;;5012039;28;20108;-71
2023/07/23 06:44:33;;;;;;;21.25;13.15;;;;;;;;;;5012892;28;20132;-71
2023/07/23 06:46:59;;;;;;;16.02;12.05;;;;;;;;;;5012506;28;20698;-71
2023/07/23 06:49:28;;;;;;;15.98;11.05;;;;;;;;;;5000321;28;20104;-71
2023/07/23 06:51:55;;;;;;;16.23;11.35;;;;;;;;;;5009717;28;20050;-72
2023/07/23 06:54:21;;;;;;;11.35;8.95;;;;;;;;;;5005615;28;20057;-71
2023/07/23 06:56:47;;;;;;;12.30;9.50;;;;;;;;;;5007219;28;20046;-71
2023/07/23 06:59:13;;;;;;;13.15;9.77;;;;;;;;;;5008576;28;20038;-71
2023/07/23 07:01:39;;;;;;;13.68;11.32;;;;;;;;;;5009744;28;20054;-72
2023/07/23 07:04:06;;;;;;;15.65;11.88;;;;;;;;;;5011183;28;20072;-72
2023/07/23 07:06:32;;;;;;;15.40;12.05;;;;;;;;;;5010465;28;20516;-72
2023/07/23 07:08:58;;;;;;;16.80;11.77;;;;;;;;;;5012133;28;20501;-72
2023/07/23 07:11:24;;;;;;;15.38;11.90;;;;;;;;;;5010534;28;20046;-72
2023/07/23 07:13:51;;;;;;;14.90;10.95;;;;;;;;;;5011386;28;20073;-71
2023/07/23 07:16:17;;;;;;;16.20;13.65;;;;;;;;;;5010327;28;20382;-71
2023/07/23 07:18:43;;;;;;;16.67;11.95;;;;;;;;;;5004634;28;20045;-71
2023/07/23 07:21:09;;;;;;;15.50;9.00;;;;;;;;;;5009578;28;20061;-71
2023/07/23 07:23:35;;;;;;;12.35;9.77;;;;;;;;;;5010892;28;20041;-71
2023/07/23 07:26:01;;;;;;;14.45;10.52;;;;;;;;;;5009484;28;20187;-71
2023/07/23 07:28:27;;;;;;;18.92;13.43;;;;;;;;;;5010162;28;20061;-72
2023/07/23 07:31:00;;;;;;;22.17;13.70;;;;;;;;;;5005191;28;20572;-71
2023/07/23 07:33:27;;;;;;;16.63;12.52;;;;;;;;;;5004348;28;20046;-71
2023/07/23 07:35:54;;;;;;;17.80;13.00;;;;;;;;;;5004507;28;20405;-72
2023/07/23 07:38:20;;;;;;;20.10;13.15;;;;;;;;;;5009328;28;20129;-71
2023/07/23 07:40:48;;;;;;;21.13;14.05;;;;;;;;;;5010535;28;20517;-72
2023/07/23 07:43:14;;;;;;;21.25;13.48;;;;;;;;;;5012737;28;20117;-72
2023/07/23 07:45:40;;;;;;;21.35;13.10;;;;;;;;;;5007769;28;20050;-72
2023/07/23 07:48:08;;;;;;;17.42;13.10;;;;;;;;;;4996075;28;20371;-72
2023/07/23 07:50:34;;;;;;;16.45;11.88;;;;;;;;;;4999370;28;20058;-72
2023/07/23 07:53:00;;;;;;;22.73;13.98;;;;;;;;;;5010842;28;20462;-72
2023/07/23 07:55:26;;;;;;;17.52;11.80;;;;;;;;;;5012000;28;20064;-72
2023/07/23 07:57:52;;;;;;;18.70;13.90;;;;;;;;;;5010810;28;20414;-72
2023/07/23 08:00:18;;;;;;;18.48;12.80;;;;;;;;;;5012183;28;20041;-72
2023/07/23 08:02:44;;;;;;;17.30;11.93;;;;;;;;;;5009383;28;20057;-72
2023/07/23 08:05:11;;;;;;;18.75;11.27;;;;;;;;;;5010659;28;20048;-71
2023/07/23 08:07:37;;;;;;;16.58;11.52;;;;;;;;;;5010731;28;20046;-72
2023/07/23 08:10:03;;;;;;;14.57;10.48;;;;;;;;;;5012345;28;20096;-72
2023/07/23 08:12:29;;;;;;;14.07;9.43;;;;;;;;;;5010122;28;20060;-71
2023/07/23 08:14:56;;;;;;;16.50;10.85;;;;;;;;;;5011782;28;20474;-71
2023/07/23 08:17:22;;;;;;;16.00;11.95;;;;;;;;;;5002744;28;20054;-72
2023/07/23 08:19:48;;;;;;;17.35;11.13;;;;;;;;;;4990610;28;20130;-72
2023/07/23 08:22:14;;;;;;;15.55;10.07;;;;;;;;;;4994532;28;20041;-72
2023/07/23 08:24:40;;;;;;;16.35;10.27;;;;;;;;;;5011522;28;20050;-72
2023/07/23 08:27:07;;;;;;;14.45;9.35;;;;;;;;;;5010270;28;20069;-72
2023/07/23 08:29:34;;;;;;;13.73;9.80;;;;;;;;;;5010151;28;20500;-72
2023/07/23 08:32:01;;;;;;;17.25;9.35;;;;;;;;;;5010718;28;20486;-72
2023/07/23 08:34:28;;;;;;;11.85;8.90;;;;;;;;;;5009437;28;20053;-72
2023/07/23 08:36:54;;;;;;;13.02;9.25;;;;;;;;;;5011197;28;20092;-72
2023/07/23 08:39:21;;;;;;;14.48;9.57;;;;;;;;;;5027148;28;20088;-72
2023/07/23 08:41:53;;;;;;;17.42;11.13;;;;;;;;;;5008754;28;20050;-72
2023/07/23 08:44:19;;;;;;;12.98;10.77;;;;;;;;;;5010011;28;20132;-72
2023/07/23 08:46:46;;;;;;;24.50;17.27;;;;;;;;;;5025015;28;20053;-72
2023/07/23 08:49:13;;;;;;;21.08;13.40;;;;;;;;;;5012358;28;20058;-72
2023/07/23 08:51:43;;;;;;;17.70;11.98;;;;;;;;;;5009578;28;20124;-72
2023/07/23 08:54:10;;;;;;;17.60;12.40;;;;;;;;;;5005030;28;20497;-72
2023/07/23 08:56:36;;;;;;;19.73;13.23;;;;;;;;;;5008214;28;20041;-72
2023/07/23 08:59:03;;;;;;;18.58;13.45;;;;;;;;;;5008671;28;20577;-72
2023/07/23 09:01:33;;;;;;;17.60;12.35;;;;;;;;;;5009691;28;20517;-72
2023/07/23 09:03:59;;;;;;;18.58;12.75;;;;;;;;;;5007718;28;20041;-72
2023/07/23 09:06:28;;;;;;;15.40;12.18;;;;;;;;;;5005758;28;20049;-72
2023/07/23 09:08:54;;;;;;;18.85;11.80;;;;;;;;;;5009454;28;20177;-72
2023/07/23 09:11:20;;;;;;;15.05;11.07;;;;;;;;;;5003992;28;20144;-72
2023/07/23 09:13:47;;;;;;;14.57;10.43;;;;;;;;;;5008889;28;20057;-72
2023/07/23 09:16:13;;;;;;;14.95;10.20;;;;;;;;;;5008372;28;20393;-73
2023/07/23 09:18:43;;;;;;;14.48;9.82;;;;;;;;;;5009867;28;20050;-72
2023/07/23 09:21:09;;;;;;;15.07;11.10;;;;;;;;;;5011589;28;20060;-72
2023/07/23 09:23:35;;;;;;;15.18;10.73;;;;;;;;;;5012556;28;20042;-72
2023/07/23 09:26:01;;;;;;;16.13;9.68;;;;;;;;;;5012587;28;20544;-72
2023/07/23 09:28:27;;;;;;;14.52;10.35;;;;;;;;;;5007052;28;20054;-72
2023/07/23 09:30:57;;;;;;;14.27;9.65;;;;;;;;;;5009909;28;20100;-72
2023/07/23 09:33:36;;;;;;;15.55;10.40;;;;;;;;;;5028207;28;20037;-73
2023/07/23 09:36:03;;;;;;;27.23;19.17;;;;;;;;;;5013087;28;20132;-72
2023/07/23 09:38:30;;;;;;;21.23;11.75;;;;;;;;;;5014634;28;20060;-73
2023/07/23 09:40:56;;;;;;;16.33;12.95;;;;;;;;;;5011471;28;20133;-73
2023/07/23 09:43:22;;;;;;;18.83;15.90;;;;;;;;;;5015125;28;20041;-73
2023/07/23 09:45:48;;;;;;;22.27;16.95;;;;;;;;;;5012415;28;20485;-73
2023/07/23 09:48:16;;;;;;;18.02;15.27;;;;;;;;;;5014091;28;20096;-72
2023/07/23 09:50:42;;;;;;;15.88;12.68;;;;;;;;;;5011529;28;20066;-73
2023/07/23 09:53:09;;;;;;;18.05;13.75;;;;;;;;;;5014340;28;20049;-73
2023/07/23 09:55:35;;;;;;;20.45;15.63;;;;;;;;;;5012295;28;20050;-73
2023/07/23 09:58:02;;;;;;;22.08;16.35;;;;;;;;;;5013402;28;20077;-73
2023/07/23 10:00:28;;;;;;;17.45;14.32;;;;;;;;;;5010102;28;20532;-73
2023/07/23 10:02:56;;;;;;;19.90;16.15;;;;;;;;;;5013193;28;20133;-73
2023/07/23 10:05:23;;;;;;;20.70;16.20;;;;;;;;;;5013451;28;20042;-73
2023/07/23 10:07:49;;;;;;;15.35;13.05;;;;;;;;;;5013632;28;20046;-72
2023/07/23 10:10:16;;;;;;;18.95;12.82;;;;;;;;;;5014077;28;20046;-73
2023/07/23 10:12:42;;;;;;;17.00;13.60;;;;;;;;;;5011631;28;20054;-73
2023/07/23 10:15:08;;;;;;;19.45;15.32;;;;;;;;;;5013321;28;20097;-73
2023/07/23 10:17:40;;;;;;;29.98;21.85;;;;;;;;;;5013848;28;20042;-73
2023/07/23 10:20:07;;;;;;;16.88;13.77;;;;;;;;;;5013289;28;20107;-73
2023/07/23 10:22:35;;;;;;;15.82;12.00;;;;;;;;;;5010847;28;20076;-73
2023/07/23 10:25:21;;;;;;;15.25;11.68;;;;;;;;;;5011928;28;20061;-73
2023/07/23 10:28:00;;;;;;;11.90;9.40;;;;;;;;;;5027912;28;20524;-73
2023/07/23 10:30:27;;;;;;;12.40;9.43;;;;;;;;;;5012176;28;20050;-73
2023/07/23 10:33:12;;;;;;;10.07;8.60;;;;;;;;;;5010293;28;20069;-73
2023/07/23 10:35:53;;;;;;;13.02;9.20;;;;;;;;;;5011538;28;20568;-72
2023/07/23 10:38:20;;;;;;;18.45;11.23;;;;;;;;;;5004119;28;20057;-72
2023/07/23 10:40:47;;;;;;;16.63;12.75;;;;;;;;;;5009880;28;20095;-72
2023/07/23 10:43:13;;;;;;;12.65;10.20;;;;;;;;;;5013226;28;20078;-72
2023/07/23 10:45:45;;;;;;;14.40;10.32;;;;;;;;;;5007749;28;20041;-73
2023/07/23 10:48:20;;;;;;;13.02;10.35;;;;;;;;;;5012490;28;20060;-72
2023/07/23 10:51:01;;;;;;;16.73;11.52;;;;;;;;;;5012616;28;20513;-73
2023/07/23 10:53:31;;;;;;;16.88;10.90;;;;;;;;;;5013437;28;20053;-72
2023/07/23 10:55:59;;;;;;;15.68;9.88;;;;;;;;;;5014090;28;20077;-73
2023/07/23 10:58:26;;;;;;;15.60;9.77;;;;;;;;;;5011253;28;20409;-73
2023/07/23 11:00:53;;;;;;;13.35;8.23;;;;;;;;;;5005509;28;20124;-73
2023/07/23 11:03:20;;;;;;;13.55;9.60;;;;;;;;;;4999837;28;20046;-73
2023/07/23 11:05:46;;;;;;;14.00;11.27;;;;;;;;;;4993279;28;20046;-73
2023/07/23 11:08:16;;;;;;;17.63;10.60;;;;;;;;;;5001301;28;20045;-72
2023/07/23 11:10:47;;;;;;;12.88;10.43;;;;;;;;;;5012427;28;20046;-72
2023/07/23 11:13:14;;;;;;;15.88;11.27;;;;;;;;;;5012257;28;20057;-73
2023/07/23 11:15:40;;;;;;;17.25;9.98;;;;;;;;;;5010658;28;20491;-73
2023/07/23 11:18:06;;;;;;;12.68;9.50;;;;;;;;;;5013747;28;20045;-72
2023/07/23 11:20:32;;;;;;;11.52;8.82;;;;;;;;;;5006542;28;20405;-72
2023/07/23 11:22:59;;;;;;;14.88;10.18;;;;;;;;;;5010368;28;20045;-72
2023/07/23 11:25:25;;;;;;;14.80;10.38;;;;;;;;;;5008117;28;20052;-72
2023/07/23 11:27:51;;;;;;;17.38;11.93;;;;;;;;;;4992105;28;20129;-73
2023/07/23 11:30:17;;;;;;;15.30;11.27;;;;;;;;;;4973515;28;20410;-72
2023/07/23 11:32:44;;;;;;;16.08;11.65;;;;;;;;;;4980419;28;20049;-72
2023/07/23 11:35:10;;;;;;;13.75;10.20;;;;;;;;;;4976216;28;20517;-72
2023/07/23 11:37:36;;;;;;;18.48;10.65;;;;;;;;;;4989755;28;20042;-72
2023/07/23 11:40:03;;;;;;;15.77;10.18;;;;;;;;;;4982143;28;20133;-72
2023/07/23 11:42:32;;;;;;;10.20;7.40;;;;;;;;;;4991338;28;20134;-73
2023/07/23 11:45:05;;;;;;;11.18;7.40;;;;;;;;;;4991554;28;20118;-73
2023/07/23 11:47:31;;;;;;;13.07;9.20;;;;;;;;;;4991443;28;20053;-73
2023/07/23 11:49:57;;;;;;;14.45;10.70;;;;;;;;;;4992870;28;20043;-73
2023/07/23 11:52:24;;;;;;;10.75;8.20;;;;;;;;;;4976561;28;20494;-73
2023/07/23 11:54:50;;;;;;;14.02;7.70;;;;;;;;;;4990579;28;20051;-73
2023/07/23 11:57:19;;;;;;;10.73;7.40;;;;;;;;;;4971992;28;20050;-74
2023/07/23 11:59:45;;;;;;;10.00;8.07;;;;;;;;;;4970866;28;20502;-73
2023/07/23 12:02:11;;;;;;;12.65;7.95;;;;;;;;;;4992397;28;20516;-73
2023/07/23 12:04:38;;;;;;;10.63;7.13;;;;;;;;;;4974965;28;20136;-73
2023/07/23 12:07:08;;;;;;;19.00;13.93;;;;;;;;;;4993032;28;20523;-73
2023/07/23 12:09:35;;;;;;;12.43;6.65;;;;;;;;;;4978877;28;20061;-73
2023/07/23 12:12:04;;;;;;;11.55;7.15;;;;;;;;;;4974933;28;20061;-72
2023/07/23 12:14:30;;;;;;;11.70;7.30;;;;;;;;;;4992505;28;20046;-73
2023/07/23 12:16:57;;;;;;;14.07;6.63;;;;;;;;;;4990098;28;20038;-73
2023/07/23 12:19:23;;;;;;;12.82;6.13;;;;;;;;;;4988596;28;20505;-72
2023/07/23 12:21:59;;;;;;;13.20;5.13;;;;;;;;;;4993045;28;20038;-73
2023/07/23 12:24:26;;;;;;;13.52;6.32;;;;;;;;;;4993526;28;20038;-73
2023/07/23 12:26:56;;;;;;;13.15;5.43;;;;;;;;;;4993383;28;20521;-73
2023/07/23 12:29:23;;;;;;;11.23;4.90;;;;;;;;;;5010076;28;20103;-73
2023/07/23 12:32:10;;;;;;;8.75;4.68;;;;;;;;;;5005443;28;20046;-72
2023/07/23 12:34:42;;;;;;;14.05;5.53;;;;;;;;;;4996670;28;20061;-72
2023/07/23 12:37:08;;;;;;;17.13;6.20;;;;;;;;;;5007562;28;20042;-72
2023/07/23 12:39:34;;;;;;;12.77;5.97;;;;;;;;;;5006484;28;20148;-72
2023/07/23 12:42:00;;;;;;;15.07;6.05;;;;;;;;;;5006938;28;20054;-72
2023/07/23 12:44:27;;;;;;;12.27;5.05;;;;;;;;;;5010796;28;20050;-73
2023/07/23 12:46:53;;;;;;;15.02;5.55;;;;;;;;;;5004241;28;20403;-72
2023/07/23 12:49:19;;;;;;;14.60;5.95;;;;;;;;;;5011217;28;20050;-71
2023/07/23 12:51:45;;;;;;;14.18;6.35;;;;;;;;;;5010670;28;20046;-72
2023/07/23 12:54:11;;;;;;;12.95;5.93;;;;;;;;;;5010002;28;20425;-71
2023/07/23 12:56:37;;;;;;;14.70;6.00;;;;;;;;;;5007736;28;20111;-71
2023/07/23 12:59:04;;;;;;;13.10;5.80;;;;;;;;;;5010676;28;20046;-72
2023/07/23 13:01:30;;;;;;;21.25;8.20;;;;;;;;;;5006864;28;20077;-71
2023/07/23 13:03:56;;;;;;;15.48;6.00;;;;;;;;;;5010533;28;20375;-71
2023/07/23 13:06:22;;;;;;;12.48;6.25;;;;;;;;;;5010692;28;20050;-72
2023/07/23 13:08:48;;;;;;;12.63;5.18;;;;;;;;;;5010312;28;20133;-72
2023/07/23 13:11:14;;;;;;;14.73;5.20;;;;;;;;;;5012202;28;20042;-72
2023/07/23 13:13:40;;;;;;;14.35;5.07;;;;;;;;;;5011048;28;20038;-72
2023/07/23 13:16:08;;;;;;;14.98;6.00;;;;;;;;;;5006010;28;20121;-72
2023/07/23 13:18:34;;;;;;;11.07;5.22;;;;;;;;;;5010589;28;20057;-72
2023/07/23 13:21:01;;;;;;;15.32;5.93;;;;;;;;;;5011758;28;20053;-73
2023/07/23 13:23:27;;;;;;;13.20;6.03;;;;;;;;;;5010946;28;20184;-72
2023/07/23 13:25:53;;;;;;;14.55;5.78;;;;;;;;;;5009912;28;20050;-72
2023/07/23 13:28:19;;;;;;;8.77;4.97;;;;;;;;;;4995665;28;20598;-72
2023/07/23 13:30:45;;;;;;;12.73;5.75;;;;;;;;;;4990542;28;20417;-72
2023/07/23 13:33:12;;;;;;;13.52;5.78;;;;;;;;;;4990629;28;20540;-70
2023/07/23 13:35:38;;;;;;;13.65;5.78;;;;;;;;;;4990906;28;20039;-70
2023/07/23 13:38:04;;;;;;;16.67;6.20;;;;;;;;;;4991639;28;20056;-71
2023/07/23 13:40:30;;;;;;;13.75;5.82;;;;;;;;;;4973213;28;20482;-73
2023/07/23 13:42:57;;;;;;;14.07;6.20;;;;;;;;;;4990874;28;20042;-73
2023/07/23 13:45:23;;;;;;;13.30;5.63;;;;;;;;;;4990585;28;20051;-73
2023/07/23 13:47:49;;;;;;;16.75;6.03;;;;;;;;;;4969004;28;20101;-70
2023/07/23 13:50:16;;;;;;;13.05;5.22;;;;;;;;;;4962910;28;20074;-70
2023/07/23 13:52:42;;;;;;;15.40;5.88;;;;;;;;;;4991612;28;20156;-70
2023/07/23 13:55:08;;;;;;;16.15;6.05;;;;;;;;;;4989258;28;20072;-72
2023/07/23 13:57:34;;;;;;;13.68;5.75;;;;;;;;;;4969742;28;20053;-72
2023/07/23 14:00:03;;;;;;;17.27;5.85;;;;;;;;;;4990505;28;20122;-72
2023/07/23 14:02:29;;;;;;;13.93;5.85;;;;;;;;;;4974576;28;20062;-72
2023/07/23 14:04:55;;;;;;;13.60;5.47;;;;;;;;;;4989148;28;20039;-71
2023/07/23 14:07:21;;;;;;;16.10;6.22;;;;;;;;;;4994109;28;20401;-71
2023/07/23 14:09:47;;;;;;;20.42;6.28;;;;;;;;;;4995149;28;20129;-71
2023/07/23 14:12:13;;;;;;;17.20;6.72;;;;;;;;;;4977637;28;20141;-71
2023/07/23 14:14:39;;;;;;;13.57;5.97;;;;;;;;;;4992099;28;20474;-71
2023/07/23 14:17:06;;;;;;;17.02;5.65;;;;;;;;;;4984547;28;20054;-72
2023/07/23 14:19:32;;;;;;;21.33;6.55;;;;;;;;;;4977165;28;20092;-72
2023/07/23 14:21:59;;;;;;;22.20;6.40;;;;;;;;;;4981227;28;20054;-72